METAR Data
IDs: Format: Raw Decoded Include TAF

Data at: 1708 UTC 26 Oct 2021

EDDV 261650Z 22006KT 180V250 9999 BKN046 13/09 Q1020 NOSIG

TAF EDDV 261100Z 2612/2712 24010KT 9999 BKN015
  TEMPO 2622/2708 BKN012
  PROB30
  TEMPO 2705/2707 BKN009
  PROB30
  TEMPO 2711/2712 24015G25KT